createdAt,value
2023-05-02T00:01:29.439Z,102098.00
2023-05-02T00:03:57.237Z,102099.84
2023-05-02T00:06:25.250Z,102092.69
2023-05-02T00:08:52.994Z,102098.13
2023-05-02T00:11:20.791Z,102102.63
2023-05-02T00:13:48.652Z,102109.81
2023-05-02T00:16:16.315Z,102115.22
2023-05-02T00:18:45.436Z,102109.88
2023-05-02T00:21:13.971Z,102115.28
2023-05-02T00:23:41.728Z,102120.69
2023-05-02T00:26:10.317Z,102126.06
2023-05-02T00:28:38.121Z,102134.16
2023-05-02T00:31:05.890Z,102127.94
2023-05-02T00:33:33.583Z,102144.03
2023-05-02T00:36:02.577Z,102142.25
2023-05-02T00:38:30.210Z,102135.13
2023-05-02T00:40:57.937Z,102130.69
2023-05-02T00:43:26.004Z,102129.78
2023-05-02T00:45:53.799Z,102140.56
2023-05-02T00:48:21.821Z,102130.75
2023-05-02T00:50:49.495Z,102124.53
2023-05-02T00:53:18.683Z,102123.72
2023-05-02T00:55:46.510Z,102126.38
2023-05-02T00:58:16.506Z,102126.41
2023-05-02T01:00:59.901Z,102136.25
2023-05-02T01:03:36.529Z,102135.41
2023-05-02T01:06:17.813Z,102141.69
2023-05-02T01:08:53.376Z,102145.25
2023-05-02T01:11:34.287Z,102152.44
2023-05-02T01:14:06.063Z,102150.72
2023-05-02T01:16:40.475Z,102157.00
2023-05-02T01:19:13.588Z,102163.25
2023-05-02T01:21:42.699Z,102165.94
2023-05-02T01:24:21.435Z,102160.63
2023-05-02T01:27:02.864Z,102166.00
2023-05-02T01:29:33.511Z,102162.44
2023-05-02T01:32:03.693Z,102168.69
2023-05-02T01:34:33.178Z,102167.84
2023-05-02T01:37:03.878Z,102174.13
2023-05-02T01:39:32.120Z,102173.22
2023-05-02T01:42:03.677Z,102178.63
2023-05-02T01:44:36.694Z,102180.47
2023-05-02T01:47:06.977Z,102183.25
2023-05-02T01:49:35.826Z,102190.44
2023-05-02T01:52:06.408Z,102192.28
2023-05-02T01:54:36.195Z,102195.91
2023-05-02T01:57:07.998Z,102200.41
2023-05-02T01:59:41.282Z,102209.41
2023-05-02T02:02:10.287Z,102214.75
2023-05-02T02:04:40.811Z,102210.34
2023-05-02T02:07:10.796Z,102215.75
2023-05-02T02:09:38.520Z,102216.66
2023-05-02T02:12:09.820Z,102214.88
2023-05-02T02:14:43.015Z,102214.91
2023-05-02T02:17:16.141Z,102219.41
2023-05-02T02:19:45.158Z,102234.63
2023-05-02T02:22:15.212Z,102231.91
2023-05-02T02:24:44.942Z,102235.53
2023-05-02T02:27:12.588Z,102236.44
2023-05-02T02:29:41.793Z,102240.03
2023-05-02T02:32:09.578Z,102242.69
2023-05-02T02:34:37.341Z,102240.94
2023-05-02T02:37:10.352Z,102250.78
2023-05-02T02:39:49.358Z,102259.72
2023-05-02T02:42:24.176Z,102263.31
2023-05-02T02:45:02.646Z,102263.31
2023-05-02T02:47:37.330Z,102269.59
2023-05-02T02:50:16.696Z,102272.28
2023-05-02T02:52:53.364Z,102270.53
2023-05-02T02:55:31.500Z,102277.69
2023-05-02T02:58:05.306Z,102282.19
2023-05-02T03:00:35.876Z,102290.22
2023-05-02T03:03:03.664Z,102286.66
2023-05-02T03:05:34.067Z,102290.28
2023-05-02T03:08:01.920Z,102297.41
2023-05-02T03:10:29.586Z,102301.91
2023-05-02T03:12:57.359Z,102301.94
2023-05-02T03:15:47.937Z,102311.75
2023-05-02T03:18:16.410Z,102316.25
2023-05-02T03:20:44.364Z,102319.84
2023-05-02T03:23:12.082Z,102318.94
2023-05-02T03:25:39.747Z,102328.78
2023-05-02T03:28:07.445Z,102327.91
2023-05-02T03:30:40.575Z,102332.38
2023-05-02T03:33:08.946Z,102332.38
2023-05-02T03:35:36.716Z,102332.38
2023-05-02T03:38:04.398Z,102332.41
2023-05-02T03:40:32.250Z,102336.00
2023-05-02T03:42:59.830Z,102343.13
2023-05-02T03:45:27.500Z,102335.13
2023-05-02T03:47:56.911Z,102344.03
2023-05-02T03:50:25.051Z,102346.69
2023-05-02T03:52:52.831Z,102348.50
2023-05-02T03:55:21.256Z,102349.44
2023-05-02T03:57:48.903Z,102353.91
2023-05-02T04:00:17.440Z,102361.97
2023-05-02T04:02:45.377Z,102364.66
2023-05-02T04:05:14.459Z,102370.03
2023-05-02T04:07:42.075Z,102369.13
2023-05-02T04:10:16.377Z,102372.75
2023-05-02T04:12:44.199Z,102376.31
2023-05-02T04:15:12.755Z,102387.03
2023-05-02T04:17:40.455Z,102380.81
2023-05-02T04:20:09.891Z,102387.06
2023-05-02T04:22:39.640Z,102386.19
2023-05-02T04:25:07.675Z,102389.75
2023-05-02T04:27:35.356Z,102392.41
2023-05-02T04:30:03.387Z,102398.69
2023-05-02T04:32:31.483Z,102398.69
2023-05-02T04:34:59.115Z,102402.25
2023-05-02T04:37:26.826Z,102406.75
2023-05-02T04:39:55.754Z,102414.78
2023-05-02T04:42:25.043Z,102423.75
2023-05-02T04:44:52.705Z,102416.59
2023-05-02T04:47:20.572Z,102426.41
2023-05-02T04:49:48.228Z,102430.00
2023-05-02T04:52:15.866Z,102438.97
2023-05-02T04:54:43.479Z,102438.06
2023-05-02T04:57:12.525Z,102442.53
2023-05-02T04:59:40.194Z,102447.88
2023-05-02T05:02:08.276Z,102451.47
2023-05-02T05:04:36.108Z,102448.81
2023-05-02T05:07:04.311Z,102447.88
2023-05-02T05:09:32.072Z,102455.94
2023-05-02T05:11:59.704Z,102445.25
2023-05-02T05:14:28.747Z,102457.75
2023-05-02T05:16:56.610Z,102453.28
2023-05-02T05:19:24.232Z,102458.66
2023-05-02T05:21:51.915Z,102456.91
2023-05-02T05:24:19.589Z,102463.13
2023-05-02T05:26:47.229Z,102461.34
2023-05-02T05:29:14.991Z,102465.81
2023-05-02T05:31:44.023Z,102472.97
2023-05-02T05:34:11.734Z,102470.28
2023-05-02T05:36:41.129Z,102469.38
2023-05-02T05:39:08.832Z,102472.06
2023-05-02T05:41:38.258Z,102480.06
2023-05-02T05:44:06.136Z,102484.47
2023-05-02T05:46:33.735Z,102491.59
2023-05-02T05:49:02.865Z,102493.34
2023-05-02T05:51:31.501Z,102498.66
2023-05-02T05:53:59.150Z,102511.16
2023-05-02T05:56:27.013Z,102513.81
2023-05-02T05:58:54.978Z,102518.28
2023-05-02T06:01:22.714Z,102523.63
2023-05-02T06:03:50.501Z,102529.84
2023-05-02T06:06:19.637Z,102526.28
2023-05-02T06:08:47.254Z,102528.03
2023-05-02T06:11:14.890Z,102534.25
2023-05-02T06:13:42.563Z,102535.09
2023-05-02T06:16:10.226Z,102540.41
2023-05-02T06:18:37.918Z,102550.25
2023-05-02T06:21:06.232Z,102553.81
2023-05-02T06:23:35.453Z,102551.13
2023-05-02T06:26:05.029Z,102556.50
2023-05-02T06:28:33.212Z,102563.66
2023-05-02T06:31:01.302Z,102560.06
2023-05-02T06:33:29.123Z,102569.91
2023-05-02T06:35:59.091Z,102579.72
2023-05-02T06:38:27.565Z,102585.06
2023-05-02T06:40:56.828Z,102585.97
2023-05-02T06:43:24.558Z,102586.00
2023-05-02T06:45:54.612Z,102594.94
2023-05-02T06:48:22.632Z,102596.69
2023-05-02T06:50:50.457Z,102598.50
2023-05-02T06:53:18.124Z,102596.69
2023-05-02T06:55:46.977Z,102599.38
2023-05-02T06:58:16.194Z,102602.03
2023-05-02T07:00:43.915Z,102603.81
2023-05-02T07:03:12.692Z,102609.16
2023-05-02T07:05:40.432Z,102606.47
2023-05-02T07:08:09.095Z,102615.41
2023-05-02T07:10:36.729Z,102613.63
2023-05-02T07:13:04.377Z,102622.53
2023-05-02T07:15:33.383Z,102623.44
2023-05-02T07:18:01.360Z,102616.25
2023-05-02T07:20:28.972Z,102626.97
2023-05-02T07:22:57.142Z,102634.97
2023-05-02T07:25:24.765Z,102625.16
2023-05-02T07:27:52.396Z,102629.63
2023-05-02T07:30:20.146Z,102634.94
2023-05-02T07:32:49.279Z,102634.06
2023-05-02T07:35:17.054Z,102635.84
2023-05-02T07:37:44.825Z,102641.22
2023-05-02T07:40:12.879Z,102643.00
2023-05-02T07:42:41.819Z,102640.34
2023-05-02T07:45:10.388Z,102650.16
2023-05-02T07:47:38.148Z,102643.00
2023-05-02T07:50:08.974Z,102651.06
2023-05-02T07:52:36.600Z,102649.28
2023-05-02T07:55:05.106Z,102656.44
2023-05-02T07:57:32.739Z,102660.88
2023-05-02T08:00:00.814Z,102666.25
2023-05-02T08:02:28.963Z,102664.47
2023-05-02T08:04:56.891Z,102669.81
2023-05-02T08:07:26.022Z,102679.66
2023-05-02T08:09:53.610Z,102668.97
2023-05-02T08:12:21.510Z,102673.44
2023-05-02T08:14:49.081Z,102677.88
2023-05-02T08:17:16.651Z,102680.53
2023-05-02T08:19:44.433Z,102685.84
2023-05-02T08:22:12.162Z,102677.81
2023-05-02T08:24:41.168Z,102678.66
2023-05-02T08:27:08.765Z,102681.34
2023-05-02T08:29:36.519Z,102689.38
2023-05-02T08:32:04.869Z,102692.03
2023-05-02T08:34:33.806Z,102692.94
2023-05-02T08:37:01.489Z,102700.97
2023-05-02T08:39:29.113Z,102699.16
2023-05-02T08:41:58.325Z,102699.19
2023-05-02T08:44:26.130Z,102696.50
2023-05-02T08:46:55.526Z,102705.41
2023-05-02T08:49:23.921Z,102705.41
2023-05-02T08:51:53.543Z,102708.94
2023-05-02T08:54:22.037Z,102721.44
2023-05-02T08:56:49.829Z,102725.94
2023-05-02T08:59:18.886Z,102724.13
2023-05-02T09:01:50.153Z,102730.38
2023-05-02T09:04:20.600Z,102726.78
2023-05-02T09:06:48.451Z,102734.81
2023-05-02T09:09:18.428Z,102726.75
2023-05-02T09:11:48.143Z,102725.88
2023-05-02T09:14:16.742Z,102725.88
2023-05-02T09:16:46.419Z,102724.09
2023-05-02T09:19:25.907Z,102735.69
2023-05-02T09:21:54.304Z,102735.69
2023-05-02T09:24:23.431Z,102739.28
2023-05-02T09:26:59.637Z,102736.63
2023-05-02T09:29:29.063Z,102738.38
2023-05-02T09:31:58.204Z,102736.59
2023-05-02T09:34:25.843Z,102737.50
2023-05-02T09:36:54.202Z,102741.97
2023-05-02T09:39:25.535Z,102748.19
2023-05-02T09:41:54.699Z,102764.28
2023-05-02T09:44:25.182Z,102758.00
2023-05-02T09:46:55.150Z,102763.38
2023-05-02T09:49:40.897Z,102760.66
2023-05-02T09:52:13.410Z,102758.88
2023-05-02T09:54:41.082Z,102767.84
2023-05-02T09:57:10.772Z,102763.34
2023-05-02T09:59:40.060Z,102759.78
2023-05-02T10:02:10.477Z,102757.03
2023-05-02T10:04:40.605Z,102761.50
2023-05-02T10:07:10.576Z,102766.88
2023-05-02T10:09:44.098Z,102766.84
2023-05-02T10:12:16.576Z,102772.22
2023-05-02T10:14:50.167Z,102772.22
2023-05-02T10:17:23.991Z,102783.78
2023-05-02T10:19:58.843Z,102786.53
2023-05-02T10:22:27.629Z,102782.06
2023-05-02T10:24:55.908Z,102792.78
2023-05-02T10:27:23.690Z,102789.22
2023-05-02T10:29:52.740Z,102785.63
2023-05-02T10:32:21.506Z,102787.41
2023-05-02T10:34:51.242Z,102783.81
2023-05-02T10:37:20.974Z,102785.59
2023-05-02T10:39:48.750Z,102786.47
2023-05-02T10:42:17.621Z,102787.38
2023-05-02T10:44:45.305Z,102789.13
2023-05-02T10:47:23.370Z,102788.22
2023-05-02T10:49:52.959Z,102789.13
2023-05-02T10:52:30.148Z,102795.34
2023-05-02T10:55:17.907Z,102787.31
2023-05-02T10:58:25.889Z,102794.41
2023-05-02T11:00:53.571Z,102800.69
2023-05-02T11:03:56.524Z,102807.81
2023-05-02T11:06:24.772Z,102807.81
2023-05-02T11:08:54.177Z,102805.09
2023-05-02T11:11:42.125Z,102802.41
2023-05-02T11:14:10.255Z,102810.47
2023-05-02T11:17:11.589Z,102799.72
2023-05-02T11:20:27.619Z,102814.03
2023-05-02T11:22:59.804Z,102809.56
2023-05-02T11:25:33.650Z,102794.34
2023-05-02T11:28:01.706Z,102805.97
2023-05-02T11:30:43.935Z,102813.97
2023-05-02T11:33:20.251Z,102816.69
2023-05-02T11:35:49.224Z,102814.03
2023-05-02T11:38:18.612Z,102824.78
2023-05-02T11:40:58.723Z,102824.78
2023-05-02T11:43:30.741Z,102825.69
2023-05-02T11:46:00.541Z,102830.19
2023-05-02T11:48:28.893Z,102833.78
2023-05-02T11:50:58.306Z,102831.19
2023-05-02T11:53:28.837Z,102832.97
2023-05-02T11:55:59.693Z,102839.19
2023-05-02T11:58:30.085Z,102845.47
2023-05-02T12:00:58.099Z,102846.38
2023-05-02T12:03:29.121Z,102851.75
2023-05-02T12:05:57.874Z,102851.75
2023-05-02T12:08:29.840Z,102855.31
2023-05-02T12:10:58.702Z,102859.78
2023-05-02T12:13:27.829Z,102859.81
2023-05-02T12:15:56.199Z,102861.59
2023-05-02T12:18:27.049Z,102859.78
2023-05-02T12:20:56.691Z,102869.59
2023-05-02T12:23:27.257Z,102867.81
2023-05-02T12:25:54.926Z,102873.16
2023-05-02T12:28:24.337Z,102868.69
2023-05-02T12:30:52.850Z,102870.44
2023-05-02T12:33:20.727Z,102870.44
2023-05-02T12:35:48.937Z,102874.91
2023-05-02T12:38:18.174Z,102873.97
2023-05-02T12:40:50.546Z,102885.63
2023-05-02T12:43:18.474Z,102877.59
2023-05-02T12:45:48.611Z,102874.06
2023-05-02T12:48:21.139Z,102877.66
2023-05-02T12:50:49.394Z,102879.44
2023-05-02T12:53:17.112Z,102878.56
2023-05-02T12:55:44.930Z,102876.78
2023-05-02T12:58:14.371Z,102877.69
2023-05-02T13:00:45.621Z,102877.66
2023-05-02T13:03:16.412Z,102878.56
2023-05-02T13:05:44.166Z,102889.28
2023-05-02T13:08:11.765Z,102894.66
2023-05-02T13:10:39.450Z,102892.88
2023-05-02T13:13:07.818Z,102889.28
2023-05-02T13:15:35.472Z,102889.31
2023-05-02T13:18:03.514Z,102885.69
2023-05-02T13:20:32.647Z,102897.31
2023-05-02T13:23:00.414Z,102881.25
2023-05-02T13:25:28.074Z,102893.75
2023-05-02T13:27:55.701Z,102901.78
2023-05-02T13:30:23.527Z,102901.78
2023-05-02T13:32:51.311Z,102907.09
2023-05-02T13:35:19.392Z,102899.94
2023-05-02T13:37:48.270Z,102900.00
2023-05-02T13:40:16.104Z,102904.44
2023-05-02T13:42:43.789Z,102905.34
2023-05-02T13:45:12.436Z,102914.28
2023-05-02T13:47:41.415Z,102915.16
2023-05-02T13:50:10.052Z,102916.94
2023-05-02T13:52:37.689Z,102917.81
2023-05-02T13:55:08.157Z,102919.59
2023-05-02T13:57:35.723Z,102917.78
2023-05-02T14:00:04.373Z,102917.81
2023-05-02T14:02:32.484Z,102919.56
2023-05-02T14:05:00.356Z,102924.03
2023-05-02T14:07:28.542Z,102925.81
2023-05-02T14:09:56.308Z,102928.47
2023-05-02T14:12:25.866Z,102928.47
2023-05-02T14:14:53.673Z,102927.56
2023-05-02T14:17:21.592Z,102930.25
2023-05-02T14:19:49.259Z,102935.63
2023-05-02T14:22:17.207Z,102928.44
2023-05-02T14:24:45.665Z,102927.53
2023-05-02T14:27:18.120Z,102933.78
2023-05-02T14:29:47.878Z,102935.56
2023-05-02T14:32:16.080Z,102935.56
2023-05-02T14:34:43.727Z,102937.34
2023-05-02T14:37:11.530Z,102936.44
2023-05-02T14:39:40.265Z,102935.53
2023-05-02T14:42:08.189Z,102935.56
2023-05-02T14:44:35.894Z,102932.88
2023-05-02T14:47:04.915Z,102931.97
2023-05-02T14:49:32.600Z,102922.16
2023-05-02T14:52:00.310Z,102929.28
2023-05-02T14:54:28.512Z,102923.06
2023-05-02T14:56:56.889Z,102925.75
2023-05-02T14:59:24.608Z,102924.84
2023-05-02T15:01:52.921Z,102923.06
2023-05-02T15:04:22.107Z,102915.03
2023-05-02T15:06:50.590Z,102924.00
2023-05-02T15:09:18.977Z,102911.50
2023-05-02T15:11:46.678Z,102919.53
2023-05-02T15:14:14.327Z,102919.53
2023-05-02T15:16:41.979Z,102913.16
2023-05-02T15:19:09.713Z,102919.31
2023-05-02T15:21:39.345Z,102929.94
2023-05-02T15:24:07.511Z,102925.31
2023-05-02T15:26:35.329Z,102930.56
2023-05-02T15:29:03.108Z,102933.16
2023-05-02T15:31:30.846Z,102923.25
2023-05-02T15:33:58.533Z,102925.81
2023-05-02T15:36:27.914Z,102923.94
2023-05-02T15:38:56.892Z,102927.44
2023-05-02T15:41:26.927Z,102922.84
2023-05-02T15:43:54.546Z,102932.63
2023-05-02T15:46:22.314Z,102930.78
2023-05-02T15:48:50.505Z,102934.31
2023-05-02T15:51:18.366Z,102935.19
2023-05-02T15:53:49.723Z,102936.03
2023-05-02T15:56:18.794Z,102934.16
2023-05-02T15:58:46.728Z,102938.59
2023-05-02T16:01:14.457Z,102947.53
2023-05-02T16:03:42.262Z,102942.13
2023-05-02T16:06:10.025Z,102939.44
2023-05-02T16:08:37.696Z,102940.31
2023-05-02T16:11:05.542Z,102938.50
2023-05-02T16:13:34.593Z,102946.56
2023-05-02T16:16:02.231Z,102953.63
2023-05-02T16:18:29.853Z,102940.13
2023-05-02T16:20:58.254Z,102937.38
2023-05-02T16:23:26.188Z,102935.53
2023-05-02T16:25:58.637Z,102925.59
2023-05-02T16:28:26.380Z,102933.59
2023-05-02T16:30:55.549Z,102931.72
2023-05-02T16:33:23.286Z,102937.06
2023-05-02T16:35:51.187Z,102938.81
2023-05-02T16:38:19.156Z,102937.03
2023-05-02T16:40:47.125Z,102929.91
2023-05-02T16:43:14.914Z,102923.69
2023-05-02T16:45:44.092Z,102925.53
2023-05-02T16:48:14.710Z,102929.13
2023-05-02T16:50:42.474Z,102928.31
2023-05-02T16:53:10.176Z,102929.22
2023-05-02T16:55:37.797Z,102937.31
2023-05-02T16:58:06.446Z,102943.59
2023-05-02T17:00:34.151Z,102940.06
2023-05-02T17:03:05.039Z,102938.28
2023-05-02T17:05:34.781Z,102941.03
2023-05-02T17:08:02.476Z,102955.38
2023-05-02T17:10:30.127Z,102959.88
2023-05-02T17:12:59.153Z,102959.91
2023-05-02T17:15:26.738Z,102959.03
2023-05-02T17:17:54.559Z,102958.16
2023-05-02T17:20:22.217Z,102963.53
2023-05-02T17:22:51.218Z,102968.91
2023-05-02T17:25:19.325Z,102957.38
2023-05-02T17:27:47.074Z,102960.94
2023-05-02T17:30:15.669Z,102960.03
2023-05-02T17:32:43.587Z,102963.59
2023-05-02T17:35:11.621Z,102964.50
2023-05-02T17:37:40.455Z,102964.50
2023-05-02T17:40:10.908Z,102963.59
2023-05-02T17:42:38.472Z,102960.94
2023-05-02T17:45:07.449Z,102960.06
2023-05-02T17:47:35.094Z,102956.47
2023-05-02T17:50:04.762Z,102958.28
2023-05-02T17:52:34.272Z,102967.25
2023-05-02T17:55:01.997Z,102969.03
2023-05-02T17:57:31.071Z,102969.97
2023-05-02T17:59:59.814Z,102973.56
2023-05-02T18:02:28.153Z,102976.25
2023-05-02T18:04:55.889Z,102981.63
2023-05-02T18:07:24.841Z,102978.97
2023-05-02T18:09:52.589Z,102973.59
2023-05-02T18:12:20.392Z,102974.50
2023-05-02T18:14:49.451Z,102963.78
2023-05-02T18:17:20.432Z,102970.03
2023-05-02T18:19:50.017Z,102979.91
2023-05-02T18:22:19.856Z,102979.00
2023-05-02T18:24:47.586Z,102966.50
2023-05-02T18:27:15.303Z,102970.09
2023-05-02T18:29:43.039Z,102973.66
2023-05-02T18:32:12.027Z,102968.31
2023-05-02T18:34:39.659Z,102978.16
2023-05-02T18:37:07.393Z,102973.69
2023-05-02T18:39:36.239Z,102965.66
2023-05-02T18:42:04.286Z,102978.22
2023-05-02T18:44:32.575Z,102983.59
2023-05-02T18:47:00.924Z,102973.78
2023-05-02T18:49:29.917Z,102974.69
2023-05-02T18:51:57.566Z,102975.56
2023-05-02T18:54:26.331Z,102972.88
2023-05-02T18:56:54.384Z,102974.69
2023-05-02T18:59:22.125Z,102976.47
2023-05-02T19:01:49.838Z,102980.94
2023-05-02T19:04:18.440Z,102975.59
2023-05-02T19:06:47.551Z,102979.16
2023-05-02T19:09:15.676Z,102982.75
2023-05-02T19:11:43.858Z,102977.38
2023-05-02T19:14:11.718Z,102982.75
2023-05-02T19:16:40.123Z,102986.34
2023-05-02T19:19:07.951Z,102988.13
2023-05-02T19:21:35.749Z,102986.34
2023-05-02T19:24:05.175Z,102998.00
2023-05-02T19:26:32.959Z,102989.97
2023-05-02T19:29:00.679Z,102996.19
2023-05-02T19:31:28.470Z,102997.94
2023-05-02T19:33:56.144Z,103010.47
2023-05-02T19:36:27.316Z,103010.47
2023-05-02T19:38:57.979Z,103009.53
2023-05-02T19:41:27.124Z,103009.53
2023-05-02T19:43:55.668Z,103004.16
2023-05-02T19:46:23.261Z,103011.31
2023-05-02T19:48:50.981Z,103014.91
2023-05-02T19:51:25.069Z,103014.00
2023-05-02T19:53:53.078Z,103012.22
2023-05-02T19:56:25.161Z,103010.41
2023-05-02T19:58:54.191Z,103019.38
2023-05-02T20:01:22.129Z,103019.38
2023-05-02T20:03:49.870Z,103025.63
2023-05-02T20:06:17.629Z,103031.91
2023-05-02T20:08:45.191Z,103041.75
2023-05-02T20:11:12.820Z,103039.06
2023-05-02T20:13:40.405Z,103038.16
2023-05-02T20:16:10.363Z,103032.78
2023-05-02T20:18:37.939Z,103032.78
2023-05-02T20:21:05.547Z,103040.84
2023-05-02T20:23:33.197Z,103037.25
2023-05-02T20:26:00.831Z,103029.19
2023-05-02T20:28:28.489Z,103028.28
2023-05-02T20:30:56.064Z,103031.88
2023-05-02T20:33:27.483Z,103039.94
2023-05-02T20:35:57.837Z,103034.56
2023-05-02T20:38:25.501Z,103029.19
2023-05-02T20:40:53.213Z,103032.75
2023-05-02T20:43:22.873Z,103036.34
2023-05-02T20:45:50.484Z,103044.41
2023-05-02T20:48:18.314Z,103054.25
2023-05-02T20:50:54.823Z,103048.88
2023-05-02T20:53:23.880Z,103050.63
2023-05-02T20:55:51.794Z,103034.50
2023-05-02T20:58:19.380Z,103040.72
2023-05-02T21:00:52.139Z,103034.44
2023-05-02T21:03:20.499Z,103028.16
2023-05-02T21:05:54.381Z,103030.81
2023-05-02T21:08:22.799Z,103030.81
2023-05-02T21:10:51.306Z,103033.50
2023-05-02T21:13:18.936Z,103025.44
2023-05-02T21:15:46.732Z,103020.94
2023-05-02T21:18:14.360Z,103020.94
2023-05-02T21:20:41.983Z,103025.41
2023-05-02T21:23:11.351Z,103029.00
2023-05-02T21:25:39.079Z,103023.63
2023-05-02T21:28:06.921Z,103028.09
2023-05-02T21:30:34.517Z,103027.19
2023-05-02T21:33:02.167Z,103030.72
2023-05-02T21:35:33.952Z,103029.81
2023-05-02T21:38:02.367Z,103028.94
2023-05-02T21:40:31.870Z,103022.66
2023-05-02T21:42:59.552Z,103016.38
2023-05-02T21:45:27.725Z,103007.41
2023-05-02T21:47:55.490Z,103000.09
2023-05-02T21:50:23.357Z,103008.91
2023-05-02T21:52:51.144Z,103010.63
2023-05-02T21:55:18.950Z,103007.00
2023-05-02T21:57:47.857Z,103006.06
2023-05-02T22:00:16.122Z,103000.75
2023-05-02T22:02:44.231Z,103004.50
2023-05-02T22:05:13.622Z,103003.66
2023-05-02T22:07:41.651Z,103010.00
2023-05-02T22:10:11.543Z,103011.00
2023-05-02T22:12:39.143Z,103007.50
2023-05-02T22:15:10.435Z,103010.25
2023-05-02T22:17:42.441Z,103012.09
2023-05-02T22:20:12.924Z,103013.06
2023-05-02T22:22:40.965Z,103012.28
2023-05-02T22:25:09.782Z,103015.97
2023-05-02T22:27:37.363Z,103013.34
2023-05-02T22:30:06.089Z,103013.44
2023-05-02T22:32:35.201Z,103020.66
2023-05-02T22:35:03.366Z,103021.63
2023-05-02T22:37:31.213Z,103026.09
2023-05-02T22:39:58.854Z,103026.19
2023-05-02T22:42:26.532Z,103021.75
2023-05-02T22:44:54.855Z,103020.88
2023-05-02T22:47:22.701Z,103024.47
2023-05-02T22:49:52.520Z,103029.88
2023-05-02T22:52:20.717Z,103020.09
2023-05-02T22:54:48.573Z,103015.63
2023-05-02T22:57:16.158Z,103020.13
2023-05-02T22:59:43.722Z,103021.03
2023-05-02T23:02:12.279Z,103021.06
2023-05-02T23:04:39.972Z,103014.84
2023-05-02T23:07:08.964Z,103022.91
2023-05-02T23:09:36.542Z,103014.88
2023-05-02T23:12:05.685Z,103027.41
2023-05-02T23:14:33.378Z,103027.41
2023-05-02T23:17:03.127Z,103031.00
2023-05-02T23:19:31.163Z,103031.94
2023-05-02T23:21:59.192Z,103027.50
2023-05-02T23:24:28.896Z,103042.66
2023-05-02T23:26:56.773Z,103040.03
2023-05-02T23:29:24.530Z,103047.19
2023-05-02T23:31:54.676Z,103049.88
2023-05-02T23:34:22.914Z,103047.25
2023-05-02T23:36:52.346Z,103035.63
2023-05-02T23:39:20.158Z,103046.38
2023-05-02T23:41:49.248Z,103046.41
2023-05-02T23:44:16.920Z,103039.25
2023-05-02T23:46:44.601Z,103041.94
2023-05-02T23:49:12.198Z,103044.66
2023-05-02T23:51:39.806Z,103041.97
2023-05-02T23:54:07.722Z,103050.03
2023-05-02T23:56:35.419Z,103048.22
2023-05-02T23:59:04.383Z,103053.59
